Saint Cloud, Florida
Current Conditions -  °F | °C
As of 6:50 PM on Saturday 22 Nov 2014 (Local Time) from KISM Reporting Station
Haze Haze  
Wind Chill: 70°   Ceiling: 1000
Heat Index: 70°   Visibility: 4mi
Dew Point: 70°   Wind: 12mph
Humidity: 100%   Direction: 100°E
Pressure: 30.15"   Gusts: NA
Location:  28.25°N, 81.28°W
Report Text: KISM 222350Z 10010KT 4SM BR OVC010 21/21 A3015
Loading
Personal Weather Stations






























Interactive Weather Map New forecast layout! Learn more

10-Day Weather Forecast

Advertisements
Track Severe Weather on mobile